Time;durP1;ratioP1;P1;durP2;ratioP2;P2;SDS_P1;SDS_P2;PMS_P1;PMS_P2;Temp;Humidity;BMP_temperature;BMP_pressure;BME280_temperature;BME280_humidity;BME280_pressure;Samples;Min_cycle;Max_cycle;Signal;HPM_P1;HPM_P2
2023/03/24 00:01:02;;;;;;;2.22;1.30;;;;;;;14.04;73.38;99737.38;5021665;28;20108;-69
2023/03/24 00:03:29;;;;;;;1.85;1.30;;;;;;;14.04;73.36;99737.38;5014560;28;20029;-69
2023/03/24 00:06:01;;;;;;;3.53;1.33;;;;;;;14.05;73.30;99739.09;5013709;28;20389;-69
2023/03/24 00:08:33;;;;;;;2.47;1.48;;;;;;;14.08;73.17;99729.44;5009888;28;20056;-68
2023/03/24 00:11:02;;;;;;;3.67;1.60;;;;;;;14.09;73.07;99727.69;5023895;28;20053;-69
2023/03/24 00:13:28;;;;;;;2.38;1.60;;;;;;;14.10;73.29;99711.16;5014050;28;20033;-69
2023/03/24 00:15:54;;;;;;;2.72;1.38;;;;;;;14.10;73.38;99704.22;5018862;28;20044;-69
2023/03/24 00:18:21;;;;;;;2.95;1.00;;;;;;;14.12;73.12;99704.19;5020794;28;20391;-69
2023/03/24 00:20:47;;;;;;;2.55;1.23;;;;;;;14.12;73.45;99701.59;5028112;28;20448;-69
2023/03/24 00:23:14;;;;;;;2.47;1.40;;;;;;;14.09;73.63;99705.16;5020759;28;20148;-69
2023/03/24 00:25:40;;;;;;;2.72;1.70;;;;;;;14.13;73.25;99689.44;5014397;28;20416;-69
2023/03/24 00:28:06;;;;;;;3.03;1.67;;;;;;;14.11;73.87;99692.94;5024982;28;20041;-68
2023/03/24 00:30:33;;;;;;;3.17;1.40;;;;;;;14.10;73.84;99688.63;5019603;28;20083;-69
2023/03/24 00:33:00;;;;;;;2.50;1.30;;;;;;;14.11;73.54;99682.53;5034070;28;20036;-69
2023/03/24 00:35:27;;;;;;;2.30;1.65;;;;;;;14.10;74.17;99683.44;5018261;28;20108;-69
2023/03/24 00:37:52;;;;;;;4.07;1.42;;;;;;;14.15;73.55;99682.41;5026986;28;20839;-69
2023/03/24 00:40:20;;;;;;;2.28;1.13;;;;;;;14.17;73.64;99673.66;5015475;28;20125;-69
2023/03/24 00:42:46;;;;;;;2.33;1.42;;;;;;;14.16;74.00;99671.94;5020850;28;20108;-68
2023/03/24 00:45:16;;;;;;;3.50;1.83;;;;;;;14.18;73.70;99664.97;5019595;28;20038;-68
2023/03/24 00:47:43;;;;;;;2.20;1.48;;;;;;;14.23;73.99;99669.94;5011247;28;20037;-69
2023/03/24 00:50:14;;;;;;;2.88;1.70;;;;;;;14.29;73.63;99661.91;5022195;28;20046;-68
2023/03/24 00:52:43;;;;;;;3.15;1.40;;;;;;;14.30;73.44;99661.00;5024910;28;20033;-68
2023/03/24 00:55:12;;;;;;;2.15;1.20;;;;;;;14.31;73.87;99660.06;5012942;28;20029;-69
2023/03/24 00:57:39;;;;;;;2.55;1.50;;;;;;;14.30;73.72;99655.81;5024263;28;20395;-70
2023/03/24 01:00:15;;;;;;;2.25;1.90;;;;;;;14.34;73.42;99655.59;5028122;28;20049;-69
2023/03/24 01:02:42;;;;;;;2.38;1.45;;;;;;;14.34;73.59;99660.81;5026033;28;20033;-69
2023/03/24 01:05:08;;;;;;;3.90;1.83;;;;;;;14.31;74.41;99658.34;5021979;28;20048;-69
2023/03/24 01:07:33;;;;;;;3.53;1.60;;;;;;;14.31;74.27;99660.06;5030883;28;20033;-68
2023/03/24 01:09:59;;;;;;;3.05;1.67;;;;;;;14.29;74.29;99661.91;5014167;28;20415;-68
2023/03/24 01:12:35;;;;;;;1.60;1.40;;;;;;;14.31;74.42;99649.69;5018152;28;20030;-69
2023/03/24 01:15:05;;;;;;;4.30;1.75;;;;;;;14.30;74.41;99650.63;5020015;28;20037;-68
2023/03/24 01:17:31;;;;;;;2.38;1.35;;;;;;;14.30;74.61;99650.63;5015496;28;20068;-68
2023/03/24 01:19:57;;;;;;;2.20;1.58;;;;;;;14.27;74.89;99661.97;5024012;28;20034;-67
2023/03/24 01:22:29;;;;;;;2.88;1.70;;;;;;;14.26;74.56;99649.88;5014600;28;20042;-68
2023/03/24 01:24:55;;;;;;;2.38;1.60;;;;;;;14.24;74.90;99650.88;5027027;28;20573;-69
2023/03/24 01:27:21;;;;;;;2.03;1.52;;;;;;;14.21;74.99;99654.44;5021426;28;20025;-68
2023/03/24 01:29:47;;;;;;;3.03;1.70;;;;;;;14.19;75.39;99652.81;5020403;28;20029;-68
2023/03/24 01:32:12;;;;;;;2.15;1.45;;;;;;;14.17;75.41;99647.66;5019619;28;20037;-69
2023/03/24 01:34:38;;;;;;;3.33;1.30;;;;;;;14.16;75.43;99647.75;5022185;28;20145;-69
2023/03/24 01:37:03;;;;;;;1.92;1.40;;;;;;;14.20;75.12;99636.28;5007748;28;20037;-69
2023/03/24 01:39:29;;;;;;;3.33;1.30;;;;;;;14.22;74.94;99637.09;5016556;28;20021;-68
2023/03/24 01:41:55;;;;;;;1.60;1.17;;;;;;;14.19;75.29;99632.84;5017759;28;20127;-69
2023/03/24 01:44:23;;;;;;;2.47;1.50;;;;;;;14.20;75.42;99631.94;5024807;28;20124;-69
2023/03/24 01:46:49;;;;;;;2.38;1.50;;;;;;;14.22;75.21;99622.31;5012205;28;20053;-69
2023/03/24 01:49:15;;;;;;;3.40;1.63;;;;;;;14.22;75.10;99617.13;5009838;28;20083;-69
2023/03/24 01:51:44;;;;;;;2.22;1.35;;;;;;;14.22;75.20;99619.72;5012319;28;20029;-69
2023/03/24 01:54:38;;;;;;;2.20;1.20;;;;;;;14.23;75.29;99615.38;5014388;28;20051;-69
2023/03/24 01:57:30;;;;;;;3.60;1.85;;;;;;;14.22;75.82;99605.91;5013812;28;20108;-69
2023/03/24 01:59:59;;;;;;;2.78;1.77;;;;;;;14.20;75.71;99602.50;5017629;28;20041;-69
2023/03/24 02:02:26;;;;;;;3.33;1.73;;;;;;;14.25;75.66;99596.19;5015631;28;20038;-69
2023/03/24 02:04:58;;;;;;;3.03;1.52;;;;;;;14.28;75.58;99577.88;5030287;28;20049;-69
2023/03/24 02:07:41;;;;;;;6.70;1.90;;;;;;;14.32;75.05;99566.44;5018375;28;20044;-69
2023/03/24 02:10:12;;;;;;;2.40;1.60;;;;;;;14.37;75.23;99553.25;5018018;28;20833;-69
2023/03/24 02:12:38;;;;;;;2.85;1.77;;;;;;;14.37;75.26;99554.09;5008444;28;20042;-69
2023/03/24 02:15:05;;;;;;;2.88;1.80;;;;;;;14.34;75.41;99541.22;5016202;28;20079;-69
2023/03/24 02:18:00;;;;;;;2.88;1.95;;;;;;;14.40;74.99;99543.59;5018130;28;20038;-69
2023/03/24 02:20:31;;;;;;;3.17;1.50;;;;;;;14.41;74.45;99528.84;4995724;28;20095;-69
2023/03/24 02:23:31;;;;;;;3.83;1.60;;;;;;;14.48;73.98;99519.88;4997010;28;20046;-69
2023/03/24 02:26:44;;;;;;;5.53;2.22;;;;;;;14.46;74.12;99519.09;4994884;28;20065;-68
2023/03/24 02:29:43;;;;;;;3.33;1.88;;;;;;;14.47;74.23;99515.56;4994257;28;20042;-68
2023/03/24 02:32:22;;;;;;;2.95;2.00;;;;;;;14.47;74.49;99512.97;4991026;28;20042;-69
2023/03/24 02:35:14;;;;;;;2.72;1.83;;;;;;;14.53;74.09;99510.13;4995771;28;20041;-69
2023/03/24 02:38:04;;;;;;;2.63;2.00;;;;;;;14.55;73.69;99506.53;4992648;28;20038;-69
2023/03/24 02:40:35;;;;;;;4.30;2.08;;;;;;;14.54;74.71;99522.22;4982853;28;20038;-69
2023/03/24 02:43:06;;;;;;;3.53;2.03;;;;;;;14.55;73.96;99514.31;4993846;28;20048;-68
2023/03/24 02:45:40;;;;;;;4.45;2.00;;;;;;;14.56;73.90;99517.78;4994258;28;20056;-66
2023/03/24 02:48:08;;;;;;;3.60;2.03;;;;;;;14.54;73.72;99523.03;5018626;28;20037;-65
2023/03/24 02:50:43;;;;;;;6.38;2.20;;;;;;;14.55;74.08;99522.13;5020294;28;20044;-66
2023/03/24 02:53:22;;;;;;;4.18;2.30;;;;;;;14.54;73.88;99522.22;5015630;28;20107;-65
2023/03/24 02:56:11;;;;;;;4.22;1.85;;;;;;;14.60;73.69;99511.53;5018268;28;20073;-65
2023/03/24 02:58:48;;;;;;;3.65;2.03;;;;;;;14.60;73.69;99514.13;5020420;28;20134;-66
2023/03/24 03:01:30;;;;;;;4.53;2.00;;;;;;;14.58;74.21;99511.59;5018549;28;20037;-66
2023/03/24 03:04:01;;;;;;;4.30;2.50;;;;;;;14.56;74.05;99515.19;5018737;28;20125;-66
2023/03/24 03:06:30;;;;;;;3.22;2.20;;;;;;;14.56;74.04;99515.19;5021237;28;20051;-65
2023/03/24 03:08:59;;;;;;;3.50;2.05;;;;;;;14.59;74.48;99512.44;5016276;28;20045;-66
2023/03/24 03:11:25;;;;;;;4.25;1.73;;;;;;;14.54;74.41;99523.03;5018534;28;20410;-65
2023/03/24 03:14:00;;;;;;;5.65;2.35;;;;;;;14.59;74.28;99512.44;5017176;28;20037;-66
2023/03/24 03:16:37;;;;;;;2.28;1.92;;;;;;;14.56;74.78;99517.78;5024675;28;20044;-66
2023/03/24 03:19:09;;;;;;;2.40;2.03;;;;;;;14.57;74.88;99509.06;5018513;28;20710;-66
2023/03/24 03:21:41;;;;;;;3.40;2.28;;;;;;;14.56;75.04;99512.56;5014653;28;20013;-66
2023/03/24 03:24:14;;;;;;;2.60;2.03;;;;;;;14.54;75.14;99511.81;5023783;28;20044;-65
2023/03/24 03:26:42;;;;;;;3.72;2.10;;;;;;;14.54;74.97;99504.81;5025624;28;20068;-65
2023/03/24 03:29:20;;;;;;;3.30;2.20;;;;;;;14.55;75.23;99510.88;5015610;28;20104;-66
2023/03/24 03:31:58;;;;;;;3.90;2.50;;;;;;;14.56;75.08;99509.97;5024447;28;20042;-65
2023/03/24 03:34:41;;;;;;;5.47;2.55;;;;;;;14.54;75.54;99515.22;5024084;28;20029;-65
2023/03/24 03:37:30;;;;;;;4.00;2.15;;;;;;;14.53;75.55;99510.97;5021435;28;20060;-65
2023/03/24 03:40:05;;;;;;;3.80;2.35;;;;;;;14.53;75.22;99516.16;5007399;28;20045;-65
2023/03/24 03:42:31;;;;;;;3.83;2.15;;;;;;;14.52;75.21;99509.25;5021644;28;20037;-65
2023/03/24 03:44:56;;;;;;;3.65;2.47;;;;;;;14.47;75.78;99511.22;5023754;28;20033;-65
2023/03/24 03:47:22;;;;;;;3.33;2.38;;;;;;;14.47;75.73;99507.78;5019306;28;20038;-65
2023/03/24 03:49:48;;;;;;;4.72;2.40;;;;;;;14.44;75.67;99513.97;5016752;28;20080;-65
2023/03/24 03:52:15;;;;;;;2.35;1.88;;;;;;;14.49;75.27;99503.34;5023544;28;20140;-65
2023/03/24 03:54:42;;;;;;;4.28;2.22;;;;;;;14.48;75.64;99514.69;5015988;28;20029;-66
2023/03/24 03:57:09;;;;;;;2.60;1.90;;;;;;;14.51;75.43;99504.16;5023568;28;20128;-65
2023/03/24 03:59:37;;;;;;;5.55;2.38;;;;;;;14.51;75.38;99511.94;5026081;28;20059;-65
2023/03/24 04:02:25;;;;;;;3.05;1.90;;;;;;;14.49;75.86;99522.41;5022175;28;20048;-65
2023/03/24 04:05:28;;;;;;;3.00;2.25;;;;;;;14.47;75.61;99515.56;5010291;28;20049;-66
2023/03/24 04:08:27;;;;;;;3.72;2.10;;;;;;;14.45;75.88;99510.47;5015045;28;20376;-65
2023/03/24 04:11:24;;;;;;;4.25;1.90;;;;;;;14.48;75.86;99505.09;5022914;28;20081;-65
2023/03/24 04:14:22;;;;;;;2.70;2.05;;;;;;;14.44;75.75;99503.56;5025072;28;20095;-65
2023/03/24 04:17:31;;;;;;;2.25;1.75;;;;;;;14.46;75.47;99506.94;5019663;28;20509;-66
2023/03/24 04:20:04;;;;;;;3.40;1.77;;;;;;;14.54;74.93;99481.41;5020267;28;20036;-67
2023/03/24 04:23:13;;;;;;;4.47;1.90;;;;;;;14.54;74.78;99499.63;5022885;28;20107;-65
2023/03/24 04:25:57;;;;;;;2.47;1.45;;;;;;;14.48;75.27;99507.69;5023125;28;20119;-65
2023/03/24 04:28:41;;;;;;;2.53;1.83;;;;;;;14.52;75.11;99516.22;5018721;28;20731;-66
2023/03/24 04:31:26;;;;;;;2.45;1.60;;;;;;;14.58;74.71;99516.78;5016704;28;20038;-65
2023/03/24 04:34:02;;;;;;;3.55;1.63;;;;;;;14.60;74.33;99514.97;5019786;28;20128;-66
2023/03/24 04:36:41;;;;;;;4.78;1.58;;;;;;;14.65;73.80;99512.16;5015942;28;20022;-65
2023/03/24 04:39:24;;;;;;;3.25;1.63;;;;;;;14.67;74.01;99507.72;5010337;28;20523;-66
2023/03/24 04:41:51;;;;;;;5.25;1.60;;;;;;;14.73;73.57;99507.47;5017070;28;20071;-67
2023/03/24 04:44:20;;;;;;;2.38;1.17;;;;;;;14.73;73.44;99509.22;5014973;28;20164;-67
2023/03/24 04:46:48;;;;;;;2.33;1.10;;;;;;;14.77;73.22;99502.97;5013579;28;20030;-67
2023/03/24 04:49:13;;;;;;;1.83;1.27;;;;;;;14.79;72.46;99506.34;5020626;28;20033;-66
2023/03/24 04:51:39;;;;;;;2.95;1.30;;;;;;;14.86;72.24;99508.59;5016111;28;20531;-66
2023/03/24 04:54:04;;;;;;;1.40;1.13;;;;;;;14.90;72.16;99498.91;5018048;28;20049;-66
2023/03/24 04:56:57;;;;;;;2.72;1.35;;;;;;;14.89;72.20;99513.66;5015824;28;20120;-68
2023/03/24 04:59:22;;;;;;;2.35;1.30;;;;;;;14.88;72.77;99527.56;5011651;28;20049;-68
2023/03/24 05:01:50;;;;;;;2.78;1.20;;;;;;;14.86;72.08;99519.00;5017449;28;20045;-68
2023/03/24 05:04:18;;;;;;;2.40;1.30;;;;;;;14.88;71.88;99529.31;5010383;28;20594;-69
2023/03/24 05:06:45;;;;;;;4.00;1.40;;;;;;;14.86;71.69;99532.00;5009972;28;20331;-68
2023/03/24 05:09:11;;;;;;;1.65;1.23;;;;;;;14.86;72.21;99537.22;5011568;28;20045;-67
2023/03/24 05:11:37;;;;;;;1.25;1.10;;;;;;;14.89;71.68;99542.28;5010888;28;20128;-68
2023/03/24 05:14:02;;;;;;;1.75;1.13;;;;;;;14.96;71.33;99587.09;5008759;28;20168;-68
2023/03/24 05:16:27;;;;;;;3.92;1.40;;;;;;;14.67;76.40;99642.97;5012006;28;20124;-69
2023/03/24 05:18:53;;;;;;;2.22;1.23;;;;;;;14.10;77.65;99638.41;5013582;28;20029;-68
2023/03/24 05:21:19;;;;;;;3.97;1.13;;;;;;;13.52;81.12;99652.84;5020232;28;20034;-67
2023/03/24 05:23:45;;;;;;;4.93;1.40;;;;;;;13.10;83.09;99638.88;5020070;28;20041;-67
2023/03/24 05:26:10;;;;;;;3.17;1.13;;;;;;;12.77;83.26;99640.88;5013335;28;20049;-68
2023/03/24 05:28:36;;;;;;;3.78;1.25;;;;;;;12.56;82.16;99646.81;5017835;28;20081;-68
2023/03/24 05:31:01;;;;;;;8.90;1.10;;;;;;;12.38;82.73;99656.06;5013746;28;20473;-68
2023/03/24 05:33:26;;;;;;;4.90;1.10;;;;;;;12.25;83.06;99662.56;5007324;28;20438;-68
2023/03/24 05:35:52;;;;;;;2.90;0.90;;;;;;;12.18;82.10;99656.72;5016543;28;20047;-68
2023/03/24 05:38:17;;;;;;;2.15;1.10;;;;;;;12.13;82.07;99661.22;5017873;28;20116;-68
2023/03/24 05:40:43;;;;;;;3.35;1.15;;;;;;;12.12;80.97;99659.50;5014528;28;20128;-70
2023/03/24 05:43:11;;;;;;;1.83;1.10;;;;;;;12.26;79.47;99641.75;5010334;28;20084;-68
2023/03/24 05:45:37;;;;;;;2.33;1.20;;;;;;;12.14;80.46;99646.53;5019595;28;20083;-69
2023/03/24 05:48:02;;;;;;;2.13;1.30;;;;;;;12.12;79.93;99646.56;5023894;28;20738;-70
2023/03/24 05:50:27;;;;;;;2.70;0.95;;;;;;;12.24;78.95;99650.50;5022594;28;20038;-69
2023/03/24 05:52:53;;;;;;;2.03;0.95;;;;;;;12.23;79.74;99661.72;5002653;28;20080;-69
2023/03/24 05:55:20;;;;;;;3.22;1.55;;;;;;;12.29;79.05;99664.97;5013809;28;20073;-68
2023/03/24 05:57:46;;;;;;;3.40;1.70;;;;;;;12.29;79.14;99677.09;5010311;28;20064;-68
2023/03/24 06:00:18;;;;;;;3.85;1.77;;;;;;;12.42;78.29;99681.84;5017555;28;20144;-68
2023/03/24 06:02:44;;;;;;;3.75;1.48;;;;;;;12.44;79.04;99687.81;5016831;28;20037;-68
2023/03/24 06:05:10;;;;;;;2.58;1.20;;;;;;;12.46;79.39;99690.34;5013351;28;20038;-69
2023/03/24 06:07:37;;;;;;;4.85;1.13;;;;;;;12.47;79.81;99702.41;5022587;28;20038;-69
2023/03/24 06:10:03;;;;;;;6.07;1.73;;;;;;;12.51;79.92;99716.09;5015272;28;20106;-68
2023/03/24 06:12:29;;;;;;;2.13;1.33;;;;;;;12.51;79.87;99714.38;5009503;28;20025;-69
2023/03/24 06:14:56;;;;;;;1.75;1.10;;;;;;;12.58;79.47;99730.56;5020271;28;20075;-68
2023/03/24 06:17:23;;;;;;;4.00;1.52;;;;;;;12.57;80.44;99734.91;5018760;28;20572;-69
2023/03/24 06:19:49;;;;;;;1.67;1.15;;;;;;;12.60;80.34;99731.38;5012519;28;20045;-68
2023/03/24 06:22:16;;;;;;;4.13;1.42;;;;;;;12.63;80.68;99726.94;5011471;28;20050;-68
2023/03/24 06:24:42;;;;;;;2.15;1.30;;;;;;;12.65;80.78;99732.91;5021605;28;20035;-68
2023/03/24 06:27:09;;;;;;;2.45;1.30;;;;;;;12.69;80.78;99736.25;5014736;28;20033;-69
2023/03/24 06:29:35;;;;;;;4.18;1.70;;;;;;;12.72;80.45;99733.56;5009837;28;20037;-68
2023/03/24 06:32:01;;;;;;;2.42;1.30;;;;;;;12.75;79.88;99730.84;5008394;28;20119;-68
2023/03/24 06:34:28;;;;;;;6.25;1.42;;;;;;;12.77;79.63;99735.09;5014483;28;20436;-68
2023/03/24 06:36:54;;;;;;;1.95;1.30;;;;;;;12.77;79.92;99745.47;5019359;28;20037;-68
2023/03/24 06:39:20;;;;;;;3.97;1.35;;;;;;;12.82;79.45;99755.69;5014481;28;20021;-68
2023/03/24 06:41:46;;;;;;;3.63;1.63;;;;;;;12.91;79.58;99769.19;5014848;28;20037;-69
2023/03/24 06:44:12;;;;;;;3.55;1.33;;;;;;;13.05;78.13;99771.34;5011958;28;20049;-68
2023/03/24 06:46:37;;;;;;;2.85;1.15;;;;;;;13.13;78.19;99782.31;5022716;28;20301;-68
2023/03/24 06:49:03;;;;;;;2.78;1.40;;;;;;;13.12;77.25;99785.78;5013428;28;20552;-68
2023/03/24 06:51:28;;;;;;;2.05;1.10;;;;;;;13.07;77.32;99787.72;5015428;28;20060;-69
2023/03/24 06:53:55;;;;;;;8.40;1.85;;;;;;;13.01;76.98;99785.31;5016491;28;20048;-68
2023/03/24 06:56:20;;;;;;;4.43;1.77;;;;;;;12.96;77.77;99800.16;5018396;28;20041;-68
2023/03/24 06:58:46;;;;;;;5.20;1.88;;;;;;;12.95;77.45;99790.69;5018692;28;20040;-68
2023/03/24 07:01:13;;;;;;;3.97;1.40;;;;;;;12.94;77.30;99781.19;5013035;28;20052;-69
2023/03/24 07:03:40;;;;;;;4.70;1.60;;;;;;;12.90;77.37;99784.81;5013202;28;20029;-68
2023/03/24 07:06:06;;;;;;;3.90;1.40;;;;;;;12.87;77.08;99796.13;5017452;28;20053;-68
2023/03/24 07:08:32;;;;;;;2.95;1.40;;;;;;;12.81;77.10;99795.47;5016774;28;20049;-68
2023/03/24 07:10:58;;;;;;;6.78;1.73;;;;;;;12.80;77.28;99799.81;5009601;28;20088;-68
2023/03/24 07:13:23;;;;;;;3.67;1.65;;;;;;;12.80;76.38;99797.22;5017410;28;20088;-69
2023/03/24 07:15:49;;;;;;;4.82;1.95;;;;;;;12.77;76.52;99817.22;5010986;28;20037;-69
2023/03/24 07:18:14;;;;;;;5.70;1.85;;;;;;;12.72;76.59;99821.72;5014214;28;20852;-68
2023/03/24 07:20:40;;;;;;;3.75;1.33;;;;;;;12.70;76.75;99802.78;5020149;28;20022;-69
2023/03/24 07:23:05;;;;;;;7.90;1.90;;;;;;;12.68;76.79;99820.94;5019516;28;20557;-69
2023/03/24 07:25:31;;;;;;;4.72;1.75;;;;;;;12.66;76.40;99824.50;5015909;28;20477;-68
2023/03/24 07:27:56;;;;;;;4.03;1.60;;;;;;;12.61;76.49;99835.03;5027694;28;20021;-68
2023/03/24 07:30:23;;;;;;;5.63;2.00;;;;;;;12.60;76.94;99854.06;5031204;28;20388;-68
2023/03/24 07:32:48;;;;;;;5.05;2.00;;;;;;;12.61;77.42;99855.75;5016295;28;20041;-69
2023/03/24 07:35:15;;;;;;;6.20;1.90;;;;;;;12.60;77.23;99855.78;5010299;28;20444;-69
2023/03/24 07:37:41;;;;;;;3.75;1.85;;;;;;;12.54;77.33;99856.84;5016343;28;20033;-69
2023/03/24 07:40:10;;;;;;;7.75;1.95;;;;;;;12.52;77.70;99857.78;5009935;28;20760;-70
2023/03/24 07:42:37;;;;;;;8.48;2.20;;;;;;;12.51;77.83;99862.13;5016421;28;20072;-70
2023/03/24 07:45:04;;;;;;;7.60;1.80;;;;;;;12.45;76.38;99865.75;5009108;28;20046;-70
2023/03/24 07:47:30;;;;;;;6.53;2.20;;;;;;;12.45;75.43;99857.97;5006887;28;20391;-69
2023/03/24 07:49:56;;;;;;;8.30;2.15;;;;;;;12.51;74.15;99853.47;5007303;28;20034;-68
2023/03/24 07:52:21;;;;;;;6.93;2.20;;;;;;;12.57;72.62;99837.75;5010972;28;20041;-69
2023/03/24 07:54:47;;;;;;;7.00;2.35;;;;;;;12.60;72.31;99854.06;5009536;28;20061;-69
2023/03/24 07:57:12;;;;;;;5.70;1.90;;;;;;;12.70;71.72;99847.66;5015417;28;20056;-69
2023/03/24 07:59:37;;;;;;;9.82;2.65;;;;;;;12.66;71.67;99850.41;5009263;28;20038;-69
2023/03/24 08:02:03;;;;;;;7.95;2.35;;;;;;;12.66;71.91;99864.25;5012911;28;20060;-69
2023/03/24 08:04:28;;;;;;;9.35;2.78;;;;;;;12.64;71.47;99854.81;5015490;28;20550;-69
2023/03/24 08:06:53;;;;;;;8.38;2.40;;;;;;;12.61;71.42;99862.69;5012635;28;20077;-70
2023/03/24 08:09:20;;;;;;;7.63;2.00;;;;;;;12.62;71.33;99846.22;5012291;28;20025;-68
2023/03/24 08:11:46;;;;;;;8.70;2.55;;;;;;;12.62;70.94;99844.47;5014254;28;20061;-69
2023/03/24 08:14:11;;;;;;;9.55;2.22;;;;;;;12.64;70.42;99844.44;5014104;28;20139;-69
2023/03/24 08:16:37;;;;;;;11.70;2.55;;;;;;;12.71;70.61;99835.56;5010553;28;20038;-69
2023/03/24 08:19:03;;;;;;;7.65;1.73;;;;;;;12.84;70.14;99831.69;5013187;28;20041;-70
2023/03/24 08:21:29;;;;;;;11.85;2.30;;;;;;;12.84;68.66;99806.59;5014695;28;20037;-71
2023/03/24 08:23:54;;;;;;;7.65;2.83;;;;;;;12.89;69.43;99819.41;5011212;28;20072;-69
2023/03/24 08:26:21;;;;;;;14.05;3.00;;;;;;;12.93;69.18;99810.63;5014599;28;20034;-70
2023/03/24 08:28:48;;;;;;;10.52;2.55;;;;;;;12.90;69.03;99813.34;5018805;28;20576;-70
2023/03/24 08:31:13;;;;;;;9.13;3.10;;;;;;;12.79;70.17;99829.22;5013312;28;20073;-70
2023/03/24 08:33:39;;;;;;;7.82;2.08;;;;;;;12.73;70.42;99834.59;4992889;28;20495;-70
2023/03/24 08:36:05;;;;;;;6.63;2.22;;;;;;;12.73;70.70;99844.97;5010564;28;20038;-69
2023/03/24 08:38:31;;;;;;;14.48;2.53;;;;;;;12.87;70.77;99845.41;5012198;28;20052;-70
2023/03/24 08:41:05;;;;;;;10.05;2.78;;;;;;;12.99;69.04;99818.22;5016030;28;20037;-70
2023/03/24 08:43:32;;;;;;;8.05;2.22;;;;;;;13.08;68.65;99806.72;5017364;28;20045;-69
2023/03/24 08:45:59;;;;;;;11.07;1.92;;;;;;;13.15;69.15;99819.41;5018887;28;20068;-69
2023/03/24 08:48:24;;;;;;;10.80;2.20;;;;;;;13.17;69.08;99835.81;5013448;28;20026;-69
2023/03/24 08:50:51;;;;;;;5.75;2.15;;;;;;;13.15;68.78;99824.59;5011314;28;20033;-70
2023/03/24 08:53:16;;;;;;;8.57;2.60;;;;;;;13.18;68.83;99829.69;5007503;28;20037;-69
2023/03/24 08:55:43;;;;;;;7.00;2.35;;;;;;;13.28;69.76;99846.66;5023047;28;20086;-69
2023/03/24 08:58:16;;;;;;;5.28;1.98;;;;;;;13.36;68.97;99841.19;5010719;28;20041;-70
2023/03/24 09:00:43;;;;;;;6.70;2.05;;;;;;;13.38;68.57;99832.47;5018677;28;20032;-69
2023/03/24 09:03:12;;;;;;;6.30;2.38;;;;;;;13.48;68.88;99840.78;5011974;28;20064;-70
2023/03/24 09:05:37;;;;;;;9.55;2.28;;;;;;;13.43;67.38;99820.19;5013097;28;20223;-71
2023/03/24 09:08:03;;;;;;;6.07;1.98;;;;;;;13.46;67.98;99840.84;5014355;28;20067;-70
2023/03/24 09:10:28;;;;;;;9.70;2.95;;;;;;;13.54;67.23;99824.97;5016422;28;20049;-70
2023/03/24 09:12:53;;;;;;;9.98;1.95;;;;;;;13.54;67.54;99835.38;5007453;28;20087;-70
2023/03/24 09:15:19;;;;;;;4.60;1.83;;;;;;;13.78;66.52;99826.72;5012368;28;20419;-70
2023/03/24 09:17:44;;;;;;;7.45;3.00;;;;;;;13.94;64.53;99788.03;5009404;28;20037;-69
2023/03/24 09:20:13;;;;;;;9.18;2.40;;;;;;;14.16;63.17;99756.88;5009708;28;20083;-70
2023/03/24 09:22:40;;;;;;;7.18;2.22;;;;;;;14.61;61.92;99737.72;5013804;28;20096;-67
2023/03/24 09:25:06;;;;;;;9.07;2.03;;;;;;;14.88;59.60;99704.50;5009229;28;20061;-67
2023/03/24 09:27:32;;;;;;;8.57;2.03;;;;;;;15.11;60.47;99722.56;5017222;28;20116;-67
2023/03/24 09:29:57;;;;;;;6.80;2.00;;;;;;;15.42;58.87;99695.19;5017324;28;20532;-67
2023/03/24 09:32:22;;;;;;;6.38;1.90;;;;;;;15.47;57.04;99681.03;5014633;28;20052;-67
2023/03/24 09:34:48;;;;;;;11.95;2.17;;;;;;;15.23;56.24;99661.31;5017339;28;20092;-67
2023/03/24 09:37:13;;;;;;;11.20;2.28;;;;;;;14.83;55.43;99666.59;5019524;28;20084;-68
2023/03/24 09:39:39;;;;;;;9.75;2.35;;;;;;;14.64;57.71;99700.31;5013300;28;20538;-67
2023/03/24 09:42:06;;;;;;;7.80;1.75;;;;;;;14.48;57.14;99700.09;5016761;28;20150;-67
2023/03/24 09:44:44;;;;;;;9.27;2.08;;;;;;;14.28;56.80;99700.03;5016113;28;20047;-67
2023/03/24 09:47:26;;;;;;;7.85;1.75;;;;;;;14.21;57.77;99722.00;5017715;28;20156;-67
2023/03/24 09:49:54;;;;;;;6.85;1.88;;;;;;;14.26;56.63;99701.88;5014614;28;20076;-67
2023/03/24 09:52:26;;;;;;;9.63;2.22;;;;;;;14.47;58.06;99732.25;5013489;28;20041;-67
2023/03/24 09:54:57;;;;;;;7.13;1.90;;;;;;;14.56;56.99;99708.47;5009246;28;20522;-67
2023/03/24 09:57:36;;;;;;;6.60;1.65;;;;;;;14.60;55.64;99681.41;5019966;28;20443;-67
2023/03/24 10:00:14;;;;;;;3.80;1.70;;;;;;;14.76;54.56;99665.16;5017409;28;20030;-67
2023/03/24 10:02:40;;;;;;;8.00;1.65;;;;;;;14.81;54.61;99663.22;5013769;28;20101;-67
2023/03/24 10:05:16;;;;;;;6.65;1.67;;;;;;;14.90;55.14;99678.44;5012215;28;20116;-68
2023/03/24 10:07:51;;;;;;;8.70;2.47;;;;;;;15.01;55.37;99700.47;5014876;28;20572;-68
2023/03/24 10:10:53;;;;;;;6.88;1.80;;;;;;;15.13;55.51;99701.69;5021060;28;20140;-67
2023/03/24 10:13:32;;;;;;;5.60;2.00;;;;;;;15.23;53.92;99671.72;5019718;28;20060;-69
2023/03/24 10:16:10;;;;;;;8.88;2.08;;;;;;;15.28;52.66;99661.13;5019554;28;20021;-68
2023/03/24 10:18:43;;;;;;;8.55;1.58;;;;;;;15.30;53.81;99677.50;5016791;28;20021;-68
2023/03/24 10:21:31;;;;;;;9.75;1.60;;;;;;;15.46;50.69;99642.91;5010028;28;20054;-70
2023/03/24 10:24:02;;;;;;;9.55;1.45;;;;;;;15.59;51.13;99646.63;5014539;28;20044;-69
2023/03/24 10:26:49;;;;;;;3.10;1.20;;;;;;;15.61;49.01;99623.13;5024251;28;20121;-69
2023/03/24 10:29:20;;;;;;;5.30;1.48;;;;;;;15.65;49.47;99624.66;5013662;28;20112;-69
2023/03/24 10:31:51;;;;;;;5.10;1.27;;;;;;;15.67;49.66;99643.69;5013371;28;20047;-69
2023/03/24 10:34:18;;;;;;;6.18;1.50;;;;;;;15.62;49.52;99645.63;5009709;28;20100;-69
2023/03/24 10:36:43;;;;;;;5.95;1.52;;;;;;;15.58;50.45;99654.53;5014920;28;20041;-69
2023/03/24 10:39:14;;;;;;;9.95;2.33;;;;;;;15.84;51.62;99689.81;5007943;28;20040;-69
2023/03/24 10:41:41;;;;;;;5.22;1.48;;;;;;;16.03;50.35;99672.34;5013801;28;20149;-68
2023/03/24 10:44:08;;;;;;;11.52;1.95;;;;;;;16.11;49.62;99647.63;5011454;28;20099;-70
2023/03/24 10:46:44;;;;;;;12.45;2.22;;;;;;;16.18;49.83;99655.97;5029174;28;20509;-70
2023/03/24 10:49:16;;;;;;;9.80;2.38;;;;;;;16.30;49.40;99658.84;5014025;28;20120;-69
2023/03/24 10:51:48;;;;;;;6.28;1.42;;;;;;;16.48;48.95;99646.66;5017438;28;20178;-69
2023/03/24 10:54:24;;;;;;;6.13;1.30;;;;;;;16.82;48.64;99654.50;5012893;28;20367;-70
2023/03/24 10:57:04;;;;;;;3.05;1.33;;;;;;;16.75;47.28;99645.25;5013500;28;20427;-70
2023/03/24 10:59:35;;;;;;;5.18;1.48;;;;;;;16.58;47.28;99647.03;5017591;28;20037;-69
2023/03/24 11:02:09;;;;;;;7.65;1.60;;;;;;;16.62;49.68;99680.69;5017282;28;20037;-70
2023/03/24 11:04:40;;;;;;;6.22;1.50;;;;;;;16.56;47.19;99649.72;5019439;28;20037;-70
2023/03/24 11:07:14;;;;;;;7.13;1.45;;;;;;;16.75;48.62;99673.97;5021353;28;20055;-70
2023/03/24 11:09:45;;;;;;;5.78;1.35;;;;;;;17.02;47.79;99671.72;5013646;28;20868;-68
2023/03/24 11:12:26;;;;;;;5.88;1.20;;;;;;;17.01;47.24;99656.16;5018306;28;20052;-69
2023/03/24 11:14:59;;;;;;;4.70;1.45;;;;;;;17.33;47.40;99661.34;5009514;28;20038;-69
2023/03/24 11:17:26;;;;;;;4.95;1.40;;;;;;;17.41;45.91;99630.44;5015533;28;20044;-69
2023/03/24 11:19:56;;;;;;;4.15;1.02;;;;;;;17.40;44.63;99631.38;5010166;28;20894;-69
2023/03/24 11:22:23;;;;;;;6.25;2.13;;;;;;;17.14;46.60;99659.81;5011207;28;20045;-68
2023/03/24 11:24:53;;;;;;;4.82;1.10;;;;;;;16.90;46.80;99672.38;5016429;28;20037;-69
2023/03/24 11:27:19;;;;;;;6.43;1.30;;;;;;;16.84;47.46;99689.19;5019650;28;20037;-68
2023/03/24 11:29:50;;;;;;;4.60;1.10;;;;;;;16.92;47.01;99678.34;5019937;28;20048;-68
2023/03/24 11:32:26;;;;;;;4.10;1.25;;;;;;;17.26;45.72;99657.41;5016670;28;20132;-69
2023/03/24 11:35:11;;;;;;;5.63;1.52;;;;;;;17.25;44.22;99626.13;5014799;28;20041;-69
2023/03/24 11:37:36;;;;;;;6.97;1.55;;;;;;;17.73;43.71;99627.81;5015199;28;20034;-69
2023/03/24 11:40:10;;;;;;;3.20;1.17;;;;;;;17.97;44.14;99623.88;5020524;28;20040;-69
2023/03/24 11:42:42;;;;;;;6.95;0.95;;;;;;;18.04;44.10;99624.38;5022274;28;20025;-72
2023/03/24 11:45:25;;;;;;;7.20;1.98;;;;;;;17.71;43.77;99619.25;5016113;28;20041;-69
2023/03/24 11:47:55;;;;;;;8.93;1.55;;;;;;;17.60;43.98;99638.09;5014705;28;20120;-69
2023/03/24 11:50:29;;;;;;;3.53;1.02;;;;;;;17.60;44.17;99635.50;5020338;28;20446;-69